Gurnee, Illinois
Current Conditions -  °F | °C
As of 8:55 AM on Tuesday 21 Oct 2014 (Local Time) from KUGN Reporting Station
Overcast Overcast  
Wind Chill: 39°   Ceiling: 4100
Heat Index: 45°   Visibility: 10mi
Dew Point: 39°   Wind: 12mph
Humidity: 80%   Direction: 350°N
Pressure: 30.14"   Gusts: 16mph
Location:  42.36°N, 87.91°W
Report Text: KUGN 211355Z 35010G14KT 10SM FEW023 OVC041 07/04 A3014 RMK AO2 SLP210 T00720039
Loading
Personal Weather Stations






























Interactive Weather Map
Tropical Storm Tracking
New forecast layout! Learn more

10-Day Weather Forecast

Advertisements
Track Severe Weather on mobile